createdAt,value
2023-02-09T00:01:05.823Z,90.00
2023-02-09T00:03:32.786Z,90.00
2023-02-09T00:06:00.272Z,90.10
2023-02-09T00:08:27.153Z,90.00
2023-02-09T00:10:53.964Z,90.00
2023-02-09T00:13:24.128Z,90.00
2023-02-09T00:15:55.332Z,89.90
2023-02-09T00:18:22.520Z,89.90
2023-02-09T00:20:56.627Z,89.90
2023-02-09T00:23:24.021Z,89.90
2023-02-09T00:25:51.494Z,89.80
2023-02-09T00:28:18.532Z,89.90
2023-02-09T00:30:45.727Z,89.90
2023-02-09T00:33:12.712Z,89.80
2023-02-09T00:35:40.381Z,89.80
2023-02-09T00:38:07.203Z,89.70
2023-02-09T00:40:34.550Z,89.70
2023-02-09T00:43:01.273Z,89.70
2023-02-09T00:45:28.043Z,89.70
2023-02-09T00:47:54.992Z,89.70
2023-02-09T00:50:21.739Z,89.80
2023-02-09T00:52:48.469Z,89.80
2023-02-09T00:55:15.225Z,89.80
2023-02-09T00:57:41.970Z,89.80
2023-02-09T01:00:09.260Z,89.80
2023-02-09T01:02:35.940Z,89.80
2023-02-09T01:05:02.738Z,89.80
2023-02-09T01:07:29.415Z,89.80
2023-02-09T01:11:46.728Z,89.80
2023-02-09T01:14:13.468Z,89.90
2023-02-09T01:16:40.224Z,89.90
2023-02-09T01:19:06.929Z,89.90
2023-02-09T01:21:33.606Z,89.90
2023-02-09T01:24:00.327Z,89.90
2023-02-09T01:26:27.117Z,89.90
2023-02-09T01:28:54.222Z,89.90
2023-02-09T01:31:21.211Z,89.90
2023-02-09T01:33:48.036Z,90.00
2023-02-09T01:36:14.758Z,90.00
2023-02-09T01:38:41.403Z,90.00
2023-02-09T01:41:08.067Z,90.00
2023-02-09T01:44:10.174Z,90.00
2023-02-09T01:46:37.159Z,90.00
2023-02-09T01:49:07.502Z,89.90
2023-02-09T01:51:41.751Z,90.00
2023-02-09T01:54:10.713Z,90.00
2023-02-09T01:56:38.953Z,90.00
2023-02-09T01:59:05.655Z,90.00
2023-02-09T02:01:32.408Z,90.00
2023-02-09T02:03:59.313Z,90.10
2023-02-09T02:06:26.052Z,90.10
2023-02-09T02:08:56.238Z,90.10
2023-02-09T02:11:24.116Z,90.20
2023-02-09T02:13:50.892Z,90.20
2023-02-09T02:16:17.603Z,90.20
2023-02-09T02:19:03.159Z,90.20
2023-02-09T02:21:35.862Z,90.20
2023-02-09T02:24:05.519Z,90.20
2023-02-09T02:26:47.486Z,90.20
2023-02-09T02:29:20.341Z,90.20
2023-02-09T02:31:59.375Z,90.30
2023-02-09T02:34:26.002Z,90.30
2023-02-09T02:36:52.586Z,90.30
2023-02-09T02:39:42.591Z,90.30
2023-02-09T02:42:37.384Z,90.30
2023-02-09T02:45:11.886Z,90.30
2023-02-09T02:47:40.467Z,90.30
2023-02-09T02:50:19.088Z,90.30
2023-02-09T02:52:47.026Z,90.30
2023-02-09T02:55:15.102Z,90.30
2023-02-09T02:57:44.278Z,90.30
2023-02-09T03:00:16.677Z,90.20
2023-02-09T03:02:45.444Z,90.20
2023-02-09T03:05:12.212Z,90.20
2023-02-09T03:07:38.900Z,90.20
2023-02-09T03:10:24.381Z,90.20
2023-02-09T03:13:09.884Z,90.20
2023-02-09T03:15:49.581Z,90.30
2023-02-09T03:18:31.631Z,90.30
2023-02-09T03:21:16.552Z,90.20
2023-02-09T03:24:03.479Z,90.20
2023-02-09T03:26:33.318Z,90.30
2023-02-09T03:29:01.395Z,90.30
2023-02-09T03:31:28.704Z,90.30
2023-02-09T03:33:56.795Z,90.30
2023-02-09T03:36:23.444Z,90.40
2023-02-09T03:38:50.069Z,90.30
2023-02-09T03:41:16.721Z,90.40
2023-02-09T03:44:02.219Z,90.40
2023-02-09T03:46:28.931Z,90.40
2023-02-09T03:48:55.572Z,90.30
2023-02-09T03:51:22.223Z,90.30
2023-02-09T03:53:48.887Z,90.30
2023-02-09T03:56:15.549Z,90.30
2023-02-09T03:58:42.353Z,90.30
2023-02-09T04:01:10.529Z,90.40
2023-02-09T04:03:37.784Z,90.40
2023-02-09T04:06:04.670Z,90.40
2023-02-09T04:08:33.192Z,90.40
2023-02-09T04:10:59.945Z,90.40
2023-02-09T04:13:26.813Z,90.40
2023-02-09T04:15:53.946Z,90.40
2023-02-09T04:18:20.754Z,90.40
2023-02-09T04:20:47.767Z,90.40
2023-02-09T04:23:15.359Z,90.30
2023-02-09T04:25:42.135Z,90.30
2023-02-09T04:28:08.950Z,90.30
2023-02-09T04:30:35.759Z,90.30
2023-02-09T04:33:02.485Z,90.30
2023-02-09T04:35:29.188Z,90.40
2023-02-09T04:37:55.886Z,90.40
2023-02-09T04:40:22.553Z,90.50
2023-02-09T04:42:49.326Z,90.50
2023-02-09T04:45:16.033Z,90.50
2023-02-09T04:47:42.709Z,90.50
2023-02-09T04:50:09.561Z,90.50
2023-02-09T04:52:36.206Z,90.50
2023-02-09T04:55:02.935Z,90.50
2023-02-09T04:57:48.246Z,90.50
2023-02-09T05:00:15.057Z,90.50
2023-02-09T05:02:41.716Z,90.40
2023-02-09T05:05:08.469Z,90.40
2023-02-09T05:07:35.124Z,90.40
2023-02-09T05:10:01.930Z,90.30
2023-02-09T05:12:28.624Z,90.20
2023-02-09T05:14:55.244Z,90.20
2023-02-09T05:17:22.008Z,90.20
2023-02-09T05:19:48.906Z,90.20
2023-02-09T05:22:15.692Z,90.20
2023-02-09T05:24:42.378Z,90.10
2023-02-09T05:27:09.669Z,90.10
2023-02-09T05:29:36.331Z,90.20
2023-02-09T05:32:03.161Z,90.20
2023-02-09T05:34:29.969Z,90.20
2023-02-09T05:36:56.604Z,90.20
2023-02-09T05:39:23.338Z,90.20
2023-02-09T05:42:08.461Z,90.30
2023-02-09T05:44:35.220Z,90.30
2023-02-09T05:47:01.881Z,90.30
2023-02-09T05:49:28.568Z,90.40
2023-02-09T05:51:55.248Z,90.30
2023-02-09T05:54:22.055Z,90.30
2023-02-09T05:56:48.695Z,90.30
2023-02-09T05:59:15.390Z,90.30
2023-02-09T06:01:42.070Z,90.30
2023-02-09T06:04:09.199Z,90.30
2023-02-09T06:06:36.043Z,90.40
2023-02-09T06:09:02.841Z,90.40
2023-02-09T06:11:29.813Z,90.40
2023-02-09T06:13:56.479Z,90.40
2023-02-09T06:16:23.350Z,90.30
2023-02-09T06:18:50.103Z,90.30
2023-02-09T06:21:16.870Z,90.30
2023-02-09T06:23:43.686Z,90.30
2023-02-09T06:26:11.577Z,90.30
2023-02-09T06:28:38.702Z,90.20
2023-02-09T06:31:06.252Z,90.10
2023-02-09T06:33:33.657Z,90.00
2023-02-09T06:36:00.590Z,89.90
2023-02-09T06:38:27.318Z,89.70
2023-02-09T06:40:53.997Z,89.60
2023-02-09T06:43:20.713Z,89.50
2023-02-09T06:45:47.437Z,89.50
2023-02-09T06:48:14.349Z,89.50
2023-02-09T06:50:41.135Z,89.60
2023-02-09T06:53:07.917Z,89.70
2023-02-09T06:55:34.584Z,89.70
2023-02-09T06:58:01.460Z,89.80
2023-02-09T07:00:28.236Z,89.70
2023-02-09T07:02:55.620Z,89.60
2023-02-09T07:05:22.348Z,89.60
2023-02-09T07:07:49.045Z,89.60
2023-02-09T07:10:16.536Z,89.70
2023-02-09T07:12:45.946Z,89.70
2023-02-09T07:15:13.692Z,89.80
2023-02-09T07:17:40.386Z,89.80
2023-02-09T07:20:07.499Z,89.70
2023-02-09T07:22:34.214Z,89.60
2023-02-09T07:25:00.942Z,89.60
2023-02-09T07:27:27.809Z,89.40
2023-02-09T07:29:54.522Z,89.20
2023-02-09T07:32:25.330Z,89.20
2023-02-09T07:34:52.044Z,89.00
2023-02-09T07:37:18.761Z,88.90
2023-02-09T07:39:45.694Z,88.70
2023-02-09T07:42:12.480Z,88.60
2023-02-09T07:44:39.143Z,88.40
2023-02-09T07:47:05.968Z,88.30
2023-02-09T07:49:34.372Z,88.30
2023-02-09T07:52:01.079Z,88.20
2023-02-09T07:54:27.783Z,88.10
2023-02-09T07:56:55.018Z,88.00
2023-02-09T07:59:21.700Z,88.00
2023-02-09T08:01:48.468Z,87.90
2023-02-09T08:04:15.233Z,87.80
2023-02-09T08:06:45.927Z,87.80
2023-02-09T08:09:14.363Z,87.70
2023-02-09T08:11:41.040Z,87.70
2023-02-09T08:14:16.119Z,87.50
2023-02-09T08:16:43.002Z,87.40
2023-02-09T08:19:12.549Z,87.20
2023-02-09T08:21:41.422Z,86.90
2023-02-09T08:24:09.295Z,86.70
2023-02-09T08:26:36.349Z,86.60
2023-02-09T08:29:03.397Z,86.40
2023-02-09T08:31:30.159Z,86.10
2023-02-09T08:33:57.042Z,86.00
2023-02-09T08:36:23.713Z,85.90
2023-02-09T08:38:50.444Z,85.90
2023-02-09T08:41:17.509Z,85.80
2023-02-09T08:43:48.573Z,85.80
2023-02-09T08:46:15.441Z,85.80
2023-02-09T08:48:43.268Z,85.80
2023-02-09T08:51:10.793Z,86.00
2023-02-09T08:53:37.472Z,86.00
2023-02-09T08:56:04.249Z,86.00
2023-02-09T08:58:32.137Z,85.90
2023-02-09T09:01:00.004Z,86.00
2023-02-09T09:03:29.909Z,85.80
2023-02-09T09:06:04.708Z,85.70
2023-02-09T09:08:32.342Z,85.70
2023-02-09T09:10:59.206Z,85.70
2023-02-09T09:13:26.290Z,85.60
2023-02-09T09:15:55.186Z,85.50
2023-02-09T09:18:22.539Z,85.40
2023-02-09T09:20:49.255Z,85.30
2023-02-09T09:23:16.000Z,85.20
2023-02-09T09:25:43.034Z,85.10
2023-02-09T09:28:10.171Z,85.10
2023-02-09T09:30:37.229Z,85.10
2023-02-09T09:33:04.006Z,85.00
2023-02-09T09:35:31.309Z,85.00
2023-02-09T09:37:58.582Z,84.90
2023-02-09T09:40:27.458Z,84.90
2023-02-09T09:42:55.952Z,85.00
2023-02-09T09:45:23.666Z,84.90
2023-02-09T09:47:50.947Z,84.70
2023-02-09T09:50:41.033Z,84.60
2023-02-09T09:53:25.433Z,84.60
2023-02-09T09:55:55.239Z,84.60
2023-02-09T09:58:22.428Z,84.40
2023-02-09T10:00:50.128Z,84.20
2023-02-09T10:03:17.802Z,84.10
2023-02-09T10:05:45.196Z,84.00
2023-02-09T10:08:15.039Z,83.90
2023-02-09T10:10:41.650Z,83.80
2023-02-09T10:13:13.287Z,83.70
2023-02-09T10:15:40.210Z,83.60
2023-02-09T10:18:13.099Z,83.40
2023-02-09T10:20:42.755Z,83.40
2023-02-09T10:23:24.221Z,83.40
2023-02-09T10:26:00.694Z,83.30
2023-02-09T10:28:29.927Z,82.80
2023-02-09T10:30:58.615Z,82.80
2023-02-09T10:33:25.862Z,82.70
2023-02-09T10:36:05.823Z,82.60
2023-02-09T10:38:33.627Z,82.60
2023-02-09T10:41:01.060Z,82.60
2023-02-09T10:43:29.779Z,82.60
2023-02-09T10:45:58.605Z,82.50
2023-02-09T10:48:26.811Z,82.20
2023-02-09T10:50:56.474Z,81.90
2023-02-09T10:53:33.770Z,81.70
2023-02-09T10:56:14.418Z,81.70
2023-02-09T10:58:41.142Z,81.80
2023-02-09T11:01:11.010Z,81.70
2023-02-09T11:03:46.032Z,81.80
2023-02-09T11:06:18.755Z,81.90
2023-02-09T11:08:55.112Z,81.60
2023-02-09T11:11:24.840Z,81.20
2023-02-09T11:13:51.524Z,81.20
2023-02-09T11:16:37.983Z,81.10
2023-02-09T11:19:25.952Z,81.00
2023-02-09T11:22:12.060Z,81.00
2023-02-09T11:24:44.881Z,81.00
2023-02-09T11:27:23.993Z,80.80
2023-02-09T11:29:59.804Z,80.80
2023-02-09T11:32:40.080Z,80.30
2023-02-09T11:35:12.031Z,80.20
2023-02-09T11:37:41.814Z,80.00
2023-02-09T11:40:27.538Z,79.50
2023-02-09T11:42:57.306Z,79.40
2023-02-09T11:45:30.061Z,79.60
2023-02-09T11:47:56.746Z,79.10
2023-02-09T11:50:26.523Z,78.50
2023-02-09T11:52:56.259Z,77.90
2023-02-09T11:55:31.385Z,77.90
2023-02-09T11:58:06.536Z,77.90
2023-02-09T12:00:47.964Z,77.40
2023-02-09T12:03:19.493Z,76.80
2023-02-09T12:05:46.750Z,76.30
2023-02-09T12:08:26.323Z,75.70
2023-02-09T12:11:15.903Z,75.00
2023-02-09T12:14:01.308Z,75.60
2023-02-09T12:16:31.208Z,75.70
2023-02-09T12:18:58.126Z,74.00
2023-02-09T12:21:35.079Z,73.20
2023-02-09T12:24:01.993Z,73.10
2023-02-09T12:26:31.706Z,73.20
2023-02-09T12:29:34.281Z,73.50
2023-02-09T12:32:03.804Z,73.30
2023-02-09T12:34:36.475Z,72.30
2023-02-09T12:37:16.953Z,71.80
2023-02-09T12:40:02.435Z,70.90
2023-02-09T12:42:38.189Z,70.90
2023-02-09T12:45:24.816Z,69.30
2023-02-09T12:47:58.861Z,69.10
2023-02-09T12:50:45.669Z,69.30
2023-02-09T12:53:24.586Z,69.80
2023-02-09T12:56:01.757Z,69.80
2023-02-09T12:58:37.612Z,69.00
2023-02-09T13:01:05.073Z,68.20
2023-02-09T13:03:33.933Z,67.80
2023-02-09T13:06:01.936Z,68.30
2023-02-09T13:08:32.447Z,68.30
2023-02-09T13:10:59.392Z,67.80
2023-02-09T13:13:33.760Z,67.90
2023-02-09T13:16:00.457Z,68.00
2023-02-09T13:18:36.203Z,67.80
2023-02-09T13:21:22.088Z,67.80
2023-02-09T13:24:01.962Z,67.70
2023-02-09T13:26:31.725Z,67.60
2023-02-09T13:29:21.343Z,67.40
2023-02-09T13:31:59.402Z,67.50
2023-02-09T13:34:32.261Z,67.50
2023-02-09T13:37:08.083Z,67.40
2023-02-09T13:39:38.655Z,68.00
2023-02-09T13:42:31.772Z,68.60
2023-02-09T13:44:59.850Z,68.30
2023-02-09T13:47:27.371Z,67.20
2023-02-09T13:50:01.704Z,67.10
2023-02-09T13:52:38.640Z,67.80
2023-02-09T13:55:17.979Z,67.90
2023-02-09T13:57:46.206Z,67.70
2023-02-09T14:00:19.983Z,68.10
2023-02-09T14:03:00.972Z,68.00
2023-02-09T14:05:30.843Z,68.10
2023-02-09T14:08:00.966Z,68.10
2023-02-09T14:10:28.323Z,68.10
2023-02-09T14:12:59.949Z,68.40
2023-02-09T14:15:50.400Z,68.40
2023-02-09T14:18:29.090Z,68.10
2023-02-09T14:21:00.233Z,68.30
2023-02-09T14:23:32.680Z,68.30
2023-02-09T14:26:03.720Z,68.40
2023-02-09T14:28:30.513Z,68.80
2023-02-09T14:30:57.764Z,68.80
2023-02-09T14:33:24.989Z,69.10
2023-02-09T14:35:56.743Z,69.50
2023-02-09T14:38:39.815Z,70.20
2023-02-09T14:41:24.789Z,70.60
2023-02-09T14:43:58.616Z,71.00
2023-02-09T14:46:27.716Z,71.30
2023-02-09T14:48:59.980Z,71.20
2023-02-09T14:51:27.733Z,71.60
2023-02-09T14:53:54.958Z,71.20
2023-02-09T14:56:23.533Z,71.20
2023-02-09T14:58:50.460Z,71.70
2023-02-09T15:01:17.361Z,72.20
2023-02-09T15:03:44.203Z,72.50
2023-02-09T15:06:12.863Z,73.60
2023-02-09T15:08:39.713Z,73.80
2023-02-09T15:11:27.509Z,73.90
2023-02-09T15:13:59.848Z,74.10
2023-02-09T15:16:26.649Z,74.60
2023-02-09T15:18:53.429Z,74.80
2023-02-09T15:21:20.238Z,75.10
2023-02-09T15:23:46.993Z,75.90
2023-02-09T15:26:16.200Z,76.00
2023-02-09T15:28:43.583Z,76.00
2023-02-09T15:31:15.746Z,76.30
2023-02-09T15:33:42.835Z,76.70
2023-02-09T15:36:16.862Z,77.10
2023-02-09T15:38:43.666Z,77.80
2023-02-09T15:41:29.157Z,78.90
2023-02-09T15:44:14.542Z,79.40
2023-02-09T15:46:59.748Z,80.10
2023-02-09T15:49:26.563Z,80.30
2023-02-09T15:51:53.461Z,80.30
2023-02-09T15:54:20.983Z,80.70
2023-02-09T15:56:48.046Z,81.30
2023-02-09T15:59:22.272Z,81.70
2023-02-09T16:01:49.560Z,82.00
2023-02-09T16:04:16.452Z,82.10
2023-02-09T16:06:50.459Z,82.40
2023-02-09T16:09:22.127Z,82.40
2023-02-09T16:11:48.898Z,82.40
2023-02-09T16:14:16.725Z,82.00
2023-02-09T16:16:45.788Z,81.70
2023-02-09T16:19:13.520Z,81.70
2023-02-09T16:21:42.509Z,81.70
2023-02-09T16:24:16.486Z,81.80
2023-02-09T16:26:43.110Z,81.90
2023-02-09T16:29:11.090Z,82.10
2023-02-09T16:31:37.852Z,82.20
2023-02-09T16:34:04.623Z,82.30
2023-02-09T16:36:31.616Z,82.20
2023-02-09T16:38:58.274Z,82.00
2023-02-09T16:41:43.730Z,81.80
2023-02-09T16:44:21.144Z,81.80
2023-02-09T16:46:48.938Z,81.70
2023-02-09T16:49:27.696Z,81.80
2023-02-09T16:51:56.273Z,81.90
2023-02-09T16:54:23.232Z,82.10
2023-02-09T16:56:54.589Z,82.20
2023-02-09T16:59:21.729Z,82.50
2023-02-09T17:01:48.872Z,82.70
2023-02-09T17:04:15.720Z,82.90
2023-02-09T17:06:42.457Z,82.90
2023-02-09T17:09:15.732Z,83.10
2023-02-09T17:11:42.559Z,83.40
2023-02-09T17:14:09.431Z,83.50
2023-02-09T17:16:38.395Z,83.70
2023-02-09T17:19:07.710Z,83.80
2023-02-09T17:21:35.355Z,83.90
2023-02-09T17:24:02.222Z,83.90
2023-02-09T17:26:28.962Z,83.80
2023-02-09T17:28:55.673Z,83.50
2023-02-09T17:31:24.206Z,83.10
2023-02-09T17:33:51.983Z,82.90
2023-02-09T17:36:26.451Z,82.80
2023-02-09T17:38:54.481Z,82.60
2023-02-09T17:41:22.600Z,82.00
2023-02-09T17:43:54.774Z,81.60
2023-02-09T17:46:23.927Z,81.40
2023-02-09T17:48:50.706Z,81.10
2023-02-09T17:51:28.563Z,81.00
2023-02-09T17:53:55.516Z,81.00
2023-02-09T17:56:22.270Z,81.10
2023-02-09T17:58:48.997Z,81.10
2023-02-09T18:01:27.358Z,80.70
2023-02-09T18:03:54.731Z,80.50
2023-02-09T18:06:23.069Z,80.30
2023-02-09T18:08:49.806Z,79.90
2023-02-09T18:11:16.563Z,79.60
2023-02-09T18:13:43.208Z,79.40
2023-02-09T18:16:09.964Z,79.30
2023-02-09T18:18:36.632Z,79.20
2023-02-09T18:21:03.469Z,79.40
2023-02-09T18:23:30.134Z,79.60
2023-02-09T18:25:56.799Z,79.40
2023-02-09T18:28:23.491Z,79.30
2023-02-09T18:30:50.247Z,79.00
2023-02-09T18:33:16.928Z,78.80
2023-02-09T18:35:46.862Z,78.50
2023-02-09T18:38:14.508Z,78.70
2023-02-09T18:40:41.348Z,78.90
2023-02-09T18:43:08.447Z,78.60
2023-02-09T18:45:35.508Z,78.70
2023-02-09T18:48:02.659Z,78.50
2023-02-09T18:50:31.030Z,78.20
2023-02-09T18:52:59.378Z,77.90
2023-02-09T18:55:29.323Z,78.00
2023-02-09T18:57:57.242Z,78.10
2023-02-09T19:00:24.119Z,77.90
2023-02-09T19:02:53.355Z,78.10
2023-02-09T19:05:20.241Z,78.10
2023-02-09T19:07:47.256Z,77.90
2023-02-09T19:10:18.165Z,77.80
2023-02-09T19:12:45.466Z,77.60
2023-02-09T19:15:12.996Z,77.30
2023-02-09T19:17:40.492Z,77.30
2023-02-09T19:20:08.208Z,77.50
2023-02-09T19:22:35.171Z,77.80
2023-02-09T19:25:01.922Z,78.20
2023-02-09T19:27:29.702Z,78.30
2023-02-09T19:29:57.061Z,78.70
2023-02-09T19:32:24.824Z,79.20
2023-02-09T19:34:51.795Z,79.60
2023-02-09T19:37:19.866Z,79.60
2023-02-09T19:39:53.029Z,79.70
2023-02-09T19:42:20.703Z,79.90
2023-02-09T19:44:47.791Z,80.20
2023-02-09T19:47:15.029Z,80.30
2023-02-09T19:49:41.714Z,80.30
2023-02-09T19:52:08.417Z,80.50
2023-02-09T19:54:35.360Z,80.70
2023-02-09T19:57:04.350Z,81.00
2023-02-09T19:59:31.471Z,81.30
2023-02-09T20:01:58.216Z,81.30
2023-02-09T20:04:25.186Z,81.20
2023-02-09T20:06:51.916Z,80.90
2023-02-09T20:09:18.635Z,80.40
2023-02-09T20:11:45.316Z,80.50
2023-02-09T20:14:12.665Z,80.40
2023-02-09T20:16:39.485Z,80.30
2023-02-09T20:19:07.053Z,80.30
2023-02-09T20:21:33.902Z,80.30
2023-02-09T20:24:00.636Z,80.10
2023-02-09T20:26:29.476Z,80.00
2023-02-09T20:28:57.048Z,80.20
2023-02-09T20:31:28.223Z,80.00
2023-02-09T20:33:55.000Z,80.00
2023-02-09T20:36:24.428Z,80.10
2023-02-09T20:38:51.238Z,80.00
2023-02-09T20:41:18.215Z,80.00
2023-02-09T20:44:03.660Z,80.20
2023-02-09T20:47:00.454Z,80.30
2023-02-09T20:49:31.125Z,80.20
2023-02-09T20:51:58.210Z,80.30
2023-02-09T20:54:25.185Z,80.60
2023-02-09T20:56:51.946Z,80.70
2023-02-09T20:59:18.592Z,80.80
2023-02-09T21:01:46.023Z,80.70
2023-02-09T21:04:12.802Z,80.90
2023-02-09T21:06:39.643Z,81.00
2023-02-09T21:09:07.390Z,81.00
2023-02-09T21:11:34.417Z,81.10
2023-02-09T21:14:04.360Z,81.00
2023-02-09T21:16:31.877Z,81.20
2023-02-09T21:18:58.950Z,81.00
2023-02-09T21:21:27.089Z,81.00
2023-02-09T21:23:54.136Z,81.20
2023-02-09T21:26:24.569Z,81.20
2023-02-09T21:28:56.067Z,81.40
2023-02-09T21:31:23.909Z,81.50
2023-02-09T21:33:50.664Z,81.40
2023-02-09T21:36:17.305Z,81.50
2023-02-09T21:38:44.019Z,81.50
2023-02-09T21:41:32.206Z,81.60
2023-02-09T21:43:59.332Z,81.70
2023-02-09T21:46:26.493Z,81.70
2023-02-09T21:48:53.557Z,81.90
2023-02-09T21:51:20.799Z,82.00
2023-02-09T21:53:47.605Z,82.00
2023-02-09T21:56:14.421Z,82.10
2023-02-09T21:58:41.326Z,82.30
2023-02-09T22:01:11.019Z,82.20
2023-02-09T22:03:38.463Z,82.20
2023-02-09T22:06:05.942Z,82.30
2023-02-09T22:08:32.969Z,82.40
2023-02-09T22:11:01.172Z,82.40
2023-02-09T22:13:28.140Z,82.70
2023-02-09T22:15:55.854Z,82.70
2023-02-09T22:18:22.566Z,82.90
2023-02-09T22:20:50.882Z,83.20
2023-02-09T22:23:18.500Z,83.30
2023-02-09T22:25:45.639Z,83.60
2023-02-09T22:28:13.767Z,84.10
2023-02-09T22:30:40.607Z,84.60
2023-02-09T22:33:07.552Z,85.00
2023-02-09T22:35:34.337Z,85.20
2023-02-09T22:38:01.054Z,85.40
2023-02-09T22:40:27.776Z,85.30
2023-02-09T22:42:54.452Z,85.60
2023-02-09T22:45:21.140Z,85.90
2023-02-09T22:47:47.827Z,86.00
2023-02-09T22:50:14.843Z,86.20
2023-02-09T22:52:41.490Z,86.50
2023-02-09T22:55:08.244Z,86.70
2023-02-09T22:57:34.961Z,87.30
2023-02-09T23:00:01.921Z,87.70
2023-02-09T23:02:28.681Z,87.80
2023-02-09T23:04:55.345Z,87.80
2023-02-09T23:07:22.060Z,87.90
2023-02-09T23:09:48.785Z,88.10
2023-02-09T23:12:15.633Z,88.20
2023-02-09T23:14:42.347Z,88.40
2023-02-09T23:17:09.053Z,88.60
2023-02-09T23:19:36.033Z,88.70
2023-02-09T23:22:02.797Z,88.70
2023-02-09T23:24:29.464Z,88.80
2023-02-09T23:26:56.285Z,88.80
2023-02-09T23:29:22.987Z,88.80
2023-02-09T23:31:49.956Z,88.70
2023-02-09T23:34:19.576Z,88.60
2023-02-09T23:36:46.615Z,88.70
2023-02-09T23:39:15.420Z,88.90
2023-02-09T23:41:42.274Z,89.10
2023-02-09T23:44:09.046Z,88.90
2023-02-09T23:46:36.077Z,88.90
2023-02-09T23:49:02.957Z,89.00
2023-02-09T23:51:30.892Z,89.00
2023-02-09T23:53:58.882Z,89.10
2023-02-09T23:56:26.088Z,89.20
2023-02-09T23:58:54.378Z,89.40
